sensor_id;sensor_type;location;lat;lon;timestamp;P1;durP1;ratioP1;P2;durP2;ratioP2
16731;SDS011;8484;50.904;9.192;2023-06-10T00:01:03;2.50;;;2.30;;
16731;SDS011;8484;50.904;9.192;2023-06-10T00:03:31;3.00;;;2.43;;
16731;SDS011;8484;50.904;9.192;2023-06-10T00:05:57;2.70;;;2.37;;
16731;SDS011;8484;50.904;9.192;2023-06-10T00:08:24;2.77;;;2.50;;
16731;SDS011;8484;50.904;9.192;2023-06-10T00:10:51;3.27;;;2.70;;
16731;SDS011;8484;50.904;9.192;2023-06-10T00:13:20;2.57;;;2.37;;
16731;SDS011;8484;50.904;9.192;2023-06-10T00:15:46;2.83;;;2.60;;
16731;SDS011;8484;50.904;9.192;2023-06-10T00:18:14;2.77;;;2.50;;
16731;SDS011;8484;50.904;9.192;2023-06-10T00:20:41;3.10;;;2.47;;
16731;SDS011;8484;50.904;9.192;2023-06-10T00:23:08;2.90;;;2.60;;
16731;SDS011;8484;50.904;9.192;2023-06-10T00:25:35;3.90;;;2.63;;
16731;SDS011;8484;50.904;9.192;2023-06-10T00:28:02;4.10;;;2.60;;
16731;SDS011;8484;50.904;9.192;2023-06-10T00:30:31;3.27;;;2.70;;
16731;SDS011;8484;50.904;9.192;2023-06-10T00:32:58;3.37;;;2.70;;
16731;SDS011;8484;50.904;9.192;2023-06-10T00:35:25;3.23;;;2.60;;
16731;SDS011;8484;50.904;9.192;2023-06-10T00:37:52;2.83;;;2.60;;
16731;SDS011;8484;50.904;9.192;2023-06-10T00:40:19;2.60;;;2.40;;
16731;SDS011;8484;50.904;9.192;2023-06-10T00:42:46;3.80;;;2.90;;
16731;SDS011;8484;50.904;9.192;2023-06-10T00:45:13;2.87;;;2.67;;
16731;SDS011;8484;50.904;9.192;2023-06-10T00:47:42;3.53;;;2.50;;
16731;SDS011;8484;50.904;9.192;2023-06-10T00:50:09;4.03;;;2.70;;
16731;SDS011;8484;50.904;9.192;2023-06-10T00:52:37;2.70;;;2.50;;
16731;SDS011;8484;50.904;9.192;2023-06-10T00:55:05;3.47;;;2.60;;
16731;SDS011;8484;50.904;9.192;2023-06-10T00:57:32;3.10;;;2.80;;
16731;SDS011;8484;50.904;9.192;2023-06-10T00:59:59;3.47;;;2.90;;
16731;SDS011;8484;50.904;9.192;2023-06-10T01:02:27;2.90;;;2.70;;
16731;SDS011;8484;50.904;9.192;2023-06-10T01:04:55;3.03;;;2.80;;
16731;SDS011;8484;50.904;9.192;2023-06-10T01:07:23;4.03;;;3.20;;
16731;SDS011;8484;50.904;9.192;2023-06-10T01:09:54;4.33;;;3.07;;
16731;SDS011;8484;50.904;9.192;2023-06-10T01:12:27;3.40;;;2.83;;
16731;SDS011;8484;50.904;9.192;2023-06-10T01:14:58;3.13;;;2.83;;
16731;SDS011;8484;50.904;9.192;2023-06-10T01:17:26;3.10;;;2.80;;
16731;SDS011;8484;50.904;9.192;2023-06-10T01:19:57;3.47;;;3.17;;
16731;SDS011;8484;50.904;9.192;2023-06-10T01:22:26;3.20;;;2.90;;
16731;SDS011;8484;50.904;9.192;2023-06-10T01:24:57;3.83;;;3.00;;
16731;SDS011;8484;50.904;9.192;2023-06-10T01:27:26;2.97;;;2.77;;
16731;SDS011;8484;50.904;9.192;2023-06-10T01:29:59;3.50;;;2.93;;
16731;SDS011;8484;50.904;9.192;2023-06-10T01:32:34;3.50;;;3.20;;
16731;SDS011;8484;50.904;9.192;2023-06-10T01:35:06;3.30;;;2.93;;
16731;SDS011;8484;50.904;9.192;2023-06-10T01:37:36;2.87;;;2.67;;
16731;SDS011;8484;50.904;9.192;2023-06-10T01:40:06;3.07;;;2.87;;
16731;SDS011;8484;50.904;9.192;2023-06-10T01:42:34;3.80;;;3.40;;
16731;SDS011;8484;50.904;9.192;2023-06-10T01:45:01;5.50;;;3.40;;
16731;SDS011;8484;50.904;9.192;2023-06-10T01:47:29;3.30;;;3.00;;
16731;SDS011;8484;50.904;9.192;2023-06-10T01:49:56;4.20;;;3.43;;
16731;SDS011;8484;50.904;9.192;2023-06-10T01:52:23;3.40;;;3.10;;
16731;SDS011;8484;50.904;9.192;2023-06-10T01:54:51;6.47;;;3.53;;
16731;SDS011;8484;50.904;9.192;2023-06-10T01:57:18;3.27;;;3.00;;
16731;SDS011;8484;50.904;9.192;2023-06-10T01:59:45;3.30;;;3.00;;
16731;SDS011;8484;50.904;9.192;2023-06-10T02:02:12;3.10;;;2.90;;
16731;SDS011;8484;50.904;9.192;2023-06-10T02:04:39;3.30;;;3.00;;
16731;SDS011;8484;50.904;9.192;2023-06-10T02:07:05;3.83;;;3.10;;
16731;SDS011;8484;50.904;9.192;2023-06-10T02:09:37;4.23;;;3.10;;
16731;SDS011;8484;50.904;9.192;2023-06-10T02:12:06;4.10;;;3.70;;
16731;SDS011;8484;50.904;9.192;2023-06-10T02:14:33;4.43;;;3.20;;
16731;SDS011;8484;50.904;9.192;2023-06-10T02:17:01;5.03;;;3.30;;
16731;SDS011;8484;50.904;9.192;2023-06-10T02:19:29;3.43;;;3.13;;
16731;SDS011;8484;50.904;9.192;2023-06-10T02:21:56;3.57;;;3.27;;
16731;SDS011;8484;50.904;9.192;2023-06-10T02:24:23;4.17;;;3.87;;
16731;SDS011;8484;50.904;9.192;2023-06-10T02:26:51;3.70;;;3.40;;
16731;SDS011;8484;50.904;9.192;2023-06-10T02:29:19;4.27;;;3.63;;
16731;SDS011;8484;50.904;9.192;2023-06-10T02:31:46;4.37;;;3.57;;
16731;SDS011;8484;50.904;9.192;2023-06-10T02:34:13;3.80;;;3.50;;
16731;SDS011;8484;50.904;9.192;2023-06-10T02:36:40;3.73;;;3.37;;
16731;SDS011;8484;50.904;9.192;2023-06-10T02:39:07;4.03;;;3.63;;
16731;SDS011;8484;50.904;9.192;2023-06-10T02:41:34;3.90;;;3.50;;
16731;SDS011;8484;50.904;9.192;2023-06-10T02:44:01;3.93;;;3.50;;
16731;SDS011;8484;50.904;9.192;2023-06-10T02:46:29;4.23;;;3.20;;
16731;SDS011;8484;50.904;9.192;2023-06-10T02:48:57;3.73;;;3.40;;
16731;SDS011;8484;50.904;9.192;2023-06-10T02:51:23;3.87;;;3.53;;
16731;SDS011;8484;50.904;9.192;2023-06-10T02:53:50;4.97;;;3.60;;
16731;SDS011;8484;50.904;9.192;2023-06-10T02:56:18;4.00;;;3.60;;
16731;SDS011;8484;50.904;9.192;2023-06-10T02:58:45;3.50;;;3.20;;
16731;SDS011;8484;50.904;9.192;2023-06-10T03:01:13;3.63;;;3.27;;
16731;SDS011;8484;50.904;9.192;2023-06-10T03:03:41;4.13;;;3.73;;
16731;SDS011;8484;50.904;9.192;2023-06-10T03:06:09;3.30;;;3.00;;
16731;SDS011;8484;50.904;9.192;2023-06-10T03:08:37;3.70;;;3.40;;
16731;SDS011;8484;50.904;9.192;2023-06-10T03:11:05;3.80;;;3.30;;
16731;SDS011;8484;50.904;9.192;2023-06-10T03:13:32;3.60;;;3.20;;
16731;SDS011;8484;50.904;9.192;2023-06-10T03:15:59;3.43;;;3.13;;
16731;SDS011;8484;50.904;9.192;2023-06-10T03:18:27;4.53;;;3.23;;
16731;SDS011;8484;50.904;9.192;2023-06-10T03:20:56;3.23;;;2.93;;
16731;SDS011;8484;50.904;9.192;2023-06-10T03:23:23;4.30;;;2.90;;
16731;SDS011;8484;50.904;9.192;2023-06-10T03:25:50;3.10;;;2.80;;
16731;SDS011;8484;50.904;9.192;2023-06-10T03:28:16;3.77;;;2.80;;
16731;SDS011;8484;50.904;9.192;2023-06-10T03:30:43;3.73;;;3.00;;
16731;SDS011;8484;50.904;9.192;2023-06-10T03:33:10;2.87;;;2.60;;
16731;SDS011;8484;50.904;9.192;2023-06-10T03:35:37;3.53;;;2.60;;
16731;SDS011;8484;50.904;9.192;2023-06-10T03:38:06;4.33;;;2.60;;
16731;SDS011;8484;50.904;9.192;2023-06-10T03:40:33;4.00;;;2.90;;
16731;SDS011;8484;50.904;9.192;2023-06-10T03:43:00;2.70;;;2.50;;
16731;SDS011;8484;50.904;9.192;2023-06-10T03:45:27;3.03;;;2.73;;
16731;SDS011;8484;50.904;9.192;2023-06-10T03:47:54;2.60;;;2.40;;
16731;SDS011;8484;50.904;9.192;2023-06-10T03:50:22;3.50;;;2.80;;
16731;SDS011;8484;50.904;9.192;2023-06-10T03:52:50;3.70;;;2.80;;
16731;SDS011;8484;50.904;9.192;2023-06-10T03:55:18;3.33;;;2.63;;
16731;SDS011;8484;50.904;9.192;2023-06-10T03:57:47;3.30;;;2.70;;
16731;SDS011;8484;50.904;9.192;2023-06-10T04:00:14;3.47;;;2.50;;
16731;SDS011;8484;50.904;9.192;2023-06-10T04:02:42;2.60;;;2.40;;
16731;SDS011;8484;50.904;9.192;2023-06-10T04:05:12;4.07;;;2.70;;
16731;SDS011;8484;50.904;9.192;2023-06-10T04:07:39;3.03;;;2.70;;
16731;SDS011;8484;50.904;9.192;2023-06-10T04:10:07;2.60;;;2.27;;
16731;SDS011;8484;50.904;9.192;2023-06-10T04:12:37;4.23;;;2.43;;
16731;SDS011;8484;50.904;9.192;2023-06-10T04:15:05;7.90;;;2.40;;
16731;SDS011;8484;50.904;9.192;2023-06-10T04:17:32;2.93;;;2.40;;
16731;SDS011;8484;50.904;9.192;2023-06-10T04:19:59;3.00;;;2.30;;
16731;SDS011;8484;50.904;9.192;2023-06-10T04:22:28;3.33;;;2.40;;
16731;SDS011;8484;50.904;9.192;2023-06-10T04:24:55;2.80;;;2.30;;
16731;SDS011;8484;50.904;9.192;2023-06-10T04:27:23;2.37;;;2.10;;
16731;SDS011;8484;50.904;9.192;2023-06-10T04:29:51;3.40;;;2.43;;
16731;SDS011;8484;50.904;9.192;2023-06-10T04:32:18;2.93;;;2.47;;
16731;SDS011;8484;50.904;9.192;2023-06-10T04:34:46;3.07;;;2.33;;
16731;SDS011;8484;50.904;9.192;2023-06-10T04:37:13;2.30;;;2.10;;
16731;SDS011;8484;50.904;9.192;2023-06-10T04:39:40;2.63;;;2.20;;
16731;SDS011;8484;50.904;9.192;2023-06-10T04:42:07;2.60;;;2.40;;
16731;SDS011;8484;50.904;9.192;2023-06-10T04:44:36;4.43;;;2.50;;
16731;SDS011;8484;50.904;9.192;2023-06-10T04:47:05;3.30;;;2.07;;
16731;SDS011;8484;50.904;9.192;2023-06-10T04:49:32;2.37;;;2.10;;
16731;SDS011;8484;50.904;9.192;2023-06-10T04:52:00;3.13;;;2.13;;
16731;SDS011;8484;50.904;9.192;2023-06-10T04:54:29;2.43;;;2.00;;
16731;SDS011;8484;50.904;9.192;2023-06-10T04:56:57;2.07;;;1.87;;
16731;SDS011;8484;50.904;9.192;2023-06-10T04:59:25;2.30;;;2.10;;
16731;SDS011;8484;50.904;9.192;2023-06-10T05:01:52;3.20;;;1.90;;
16731;SDS011;8484;50.904;9.192;2023-06-10T05:04:21;3.30;;;1.80;;
16731;SDS011;8484;50.904;9.192;2023-06-10T05:06:48;2.80;;;2.00;;
16731;SDS011;8484;50.904;9.192;2023-06-10T05:09:15;2.20;;;2.00;;
16731;SDS011;8484;50.904;9.192;2023-06-10T05:11:42;3.33;;;2.20;;
16731;SDS011;8484;50.904;9.192;2023-06-10T05:14:10;2.43;;;1.80;;
16731;SDS011;8484;50.904;9.192;2023-06-10T05:16:36;1.80;;;1.50;;
16731;SDS011;8484;50.904;9.192;2023-06-10T05:19:03;2.20;;;2.00;;
16731;SDS011;8484;50.904;9.192;2023-06-10T05:21:33;3.40;;;2.20;;
16731;SDS011;8484;50.904;9.192;2023-06-10T05:24:00;3.80;;;2.40;;
16731;SDS011;8484;50.904;9.192;2023-06-10T05:26:27;3.37;;;1.90;;
16731;SDS011;8484;50.904;9.192;2023-06-10T05:28:56;3.17;;;2.10;;
16731;SDS011;8484;50.904;9.192;2023-06-10T05:31:23;3.03;;;2.23;;
16731;SDS011;8484;50.904;9.192;2023-06-10T05:33:50;2.07;;;1.87;;
16731;SDS011;8484;50.904;9.192;2023-06-10T05:36:18;2.53;;;1.83;;
16731;SDS011;8484;50.904;9.192;2023-06-10T05:38:46;4.50;;;2.10;;
16731;SDS011;8484;50.904;9.192;2023-06-10T05:41:13;2.97;;;1.60;;
16731;SDS011;8484;50.904;9.192;2023-06-10T05:43:41;2.43;;;1.70;;
16731;SDS011;8484;50.904;9.192;2023-06-10T05:46:07;2.00;;;1.70;;
16731;SDS011;8484;50.904;9.192;2023-06-10T05:48:36;2.70;;;1.60;;
16731;SDS011;8484;50.904;9.192;2023-06-10T05:51:03;3.57;;;2.03;;
16731;SDS011;8484;50.904;9.192;2023-06-10T05:53:31;6.77;;;1.60;;
16731;SDS011;8484;50.904;9.192;2023-06-10T05:55:59;6.07;;;1.70;;
16731;SDS011;8484;50.904;9.192;2023-06-10T05:58:26;2.03;;;1.70;;
16731;SDS011;8484;50.904;9.192;2023-06-10T06:00:53;3.50;;;2.00;;
16731;SDS011;8484;50.904;9.192;2023-06-10T06:03:20;3.20;;;1.40;;
16731;SDS011;8484;50.904;9.192;2023-06-10T06:05:46;2.77;;;1.87;;
16731;SDS011;8484;50.904;9.192;2023-06-10T06:08:13;2.13;;;1.70;;
16731;SDS011;8484;50.904;9.192;2023-06-10T06:10:43;4.53;;;1.97;;
16731;SDS011;8484;50.904;9.192;2023-06-10T06:13:12;2.63;;;1.57;;
16731;SDS011;8484;50.904;9.192;2023-06-10T06:15:38;4.10;;;1.57;;
16731;SDS011;8484;50.904;9.192;2023-06-10T06:18:05;2.37;;;1.80;;
16731;SDS011;8484;50.904;9.192;2023-06-10T06:20:32;1.70;;;1.60;;
16731;SDS011;8484;50.904;9.192;2023-06-10T06:22:59;4.33;;;1.90;;
16731;SDS011;8484;50.904;9.192;2023-06-10T06:25:26;2.30;;;1.93;;
16731;SDS011;8484;50.904;9.192;2023-06-10T06:27:53;2.77;;;2.00;;
16731;SDS011;8484;50.904;9.192;2023-06-10T06:30:21;2.70;;;1.90;;
16731;SDS011;8484;50.904;9.192;2023-06-10T06:32:48;2.27;;;1.70;;
16731;SDS011;8484;50.904;9.192;2023-06-10T06:35:18;3.07;;;1.63;;
16731;SDS011;8484;50.904;9.192;2023-06-10T06:37:45;2.47;;;1.50;;
16731;SDS011;8484;50.904;9.192;2023-06-10T06:40:12;4.23;;;1.80;;
16731;SDS011;8484;50.904;9.192;2023-06-10T06:42:39;2.07;;;1.63;;
16731;SDS011;8484;50.904;9.192;2023-06-10T06:45:06;2.63;;;1.70;;
16731;SDS011;8484;50.904;9.192;2023-06-10T06:47:35;2.07;;;1.60;;
16731;SDS011;8484;50.904;9.192;2023-06-10T06:50:02;1.73;;;1.40;;
16731;SDS011;8484;50.904;9.192;2023-06-10T06:52:29;1.90;;;1.50;;
16731;SDS011;8484;50.904;9.192;2023-06-10T06:54:56;2.67;;;1.80;;
16731;SDS011;8484;50.904;9.192;2023-06-10T06:57:23;1.70;;;1.60;;
16731;SDS011;8484;50.904;9.192;2023-06-10T06:59:50;1.50;;;1.40;;
16731;SDS011;8484;50.904;9.192;2023-06-10T07:02:17;2.33;;;1.53;;
16731;SDS011;8484;50.904;9.192;2023-06-10T07:04:45;2.70;;;1.50;;
16731;SDS011;8484;50.904;9.192;2023-06-10T07:07:14;3.27;;;1.53;;
16731;SDS011;8484;50.904;9.192;2023-06-10T07:09:41;3.47;;;1.50;;
16731;SDS011;8484;50.904;9.192;2023-06-10T07:12:08;3.53;;;1.70;;
16731;SDS011;8484;50.904;9.192;2023-06-10T07:14:35;1.50;;;1.40;;
16731;SDS011;8484;50.904;9.192;2023-06-10T07:17:02;2.07;;;1.50;;
16731;SDS011;8484;50.904;9.192;2023-06-10T07:19:29;1.80;;;1.40;;
16731;SDS011;8484;50.904;9.192;2023-06-10T07:21:58;1.60;;;1.50;;
16731;SDS011;8484;50.904;9.192;2023-06-10T07:24:25;3.17;;;1.50;;
16731;SDS011;8484;50.904;9.192;2023-06-10T07:26:51;1.80;;;1.43;;
16731;SDS011;8484;50.904;9.192;2023-06-10T07:29:18;2.50;;;1.67;;
16731;SDS011;8484;50.904;9.192;2023-06-10T07:31:45;4.00;;;1.50;;
16731;SDS011;8484;50.904;9.192;2023-06-10T07:34:12;3.33;;;1.70;;
16731;SDS011;8484;50.904;9.192;2023-06-10T07:36:39;2.30;;;1.57;;
16731;SDS011;8484;50.904;9.192;2023-06-10T07:39:08;4.20;;;1.50;;
16731;SDS011;8484;50.904;9.192;2023-06-10T07:41:35;2.67;;;1.80;;
16731;SDS011;8484;50.904;9.192;2023-06-10T07:44:02;1.93;;;1.57;;
16731;SDS011;8484;50.904;9.192;2023-06-10T07:46:31;1.90;;;1.70;;
16731;SDS011;8484;50.904;9.192;2023-06-10T07:48:58;2.43;;;1.70;;
16731;SDS011;8484;50.904;9.192;2023-06-10T07:51:25;1.43;;;1.30;;
16731;SDS011;8484;50.904;9.192;2023-06-10T07:53:52;2.90;;;1.50;;
16731;SDS011;8484;50.904;9.192;2023-06-10T07:56:20;3.93;;;1.73;;
16731;SDS011;8484;50.904;9.192;2023-06-10T07:58:47;3.63;;;1.90;;
16731;SDS011;8484;50.904;9.192;2023-06-10T08:01:14;3.23;;;1.80;;
16731;SDS011;8484;50.904;9.192;2023-06-10T08:03:42;2.27;;;1.70;;
16731;SDS011;8484;50.904;9.192;2023-06-10T08:06:09;3.10;;;1.60;;
16731;SDS011;8484;50.904;9.192;2023-06-10T08:08:36;2.40;;;1.43;;
16731;SDS011;8484;50.904;9.192;2023-06-10T08:11:07;2.60;;;1.50;;
16731;SDS011;8484;50.904;9.192;2023-06-10T08:13:35;1.77;;;1.40;;
16731;SDS011;8484;50.904;9.192;2023-06-10T08:16:03;2.47;;;1.63;;
16731;SDS011;8484;50.904;9.192;2023-06-10T08:18:30;1.90;;;1.40;;
16731;SDS011;8484;50.904;9.192;2023-06-10T08:20:57;2.20;;;1.53;;
16731;SDS011;8484;50.904;9.192;2023-06-10T08:23:24;1.57;;;1.37;;
16731;SDS011;8484;50.904;9.192;2023-06-10T08:25:51;1.70;;;1.60;;
16731;SDS011;8484;50.904;9.192;2023-06-10T08:28:21;3.93;;;1.40;;
16731;SDS011;8484;50.904;9.192;2023-06-10T08:30:51;2.80;;;1.33;;
16731;SDS011;8484;50.904;9.192;2023-06-10T08:33:18;2.20;;;1.60;;
16731;SDS011;8484;50.904;9.192;2023-06-10T08:35:45;3.20;;;1.50;;
16731;SDS011;8484;50.904;9.192;2023-06-10T08:38:12;1.97;;;1.67;;
16731;SDS011;8484;50.904;9.192;2023-06-10T08:40:39;2.93;;;1.90;;
16731;SDS011;8484;50.904;9.192;2023-06-10T08:43:06;2.03;;;1.40;;
16731;SDS011;8484;50.904;9.192;2023-06-10T08:45:37;1.67;;;1.57;;
16731;SDS011;8484;50.904;9.192;2023-06-10T08:48:05;3.50;;;1.50;;
16731;SDS011;8484;50.904;9.192;2023-06-10T08:50:34;2.40;;;1.33;;
16731;SDS011;8484;50.904;9.192;2023-06-10T08:53:04;3.47;;;1.60;;
16731;SDS011;8484;50.904;9.192;2023-06-10T08:55:33;2.20;;;1.90;;
16731;SDS011;8484;50.904;9.192;2023-06-10T08:58:02;3.30;;;1.60;;
16731;SDS011;8484;50.904;9.192;2023-06-10T09:00:30;2.53;;;1.53;;
16731;SDS011;8484;50.904;9.192;2023-06-10T09:02:58;1.50;;;1.40;;
16731;SDS011;8484;50.904;9.192;2023-06-10T09:05:27;4.00;;;1.70;;
16731;SDS011;8484;50.904;9.192;2023-06-10T09:07:56;1.80;;;1.57;;
16731;SDS011;8484;50.904;9.192;2023-06-10T09:10:23;3.00;;;1.70;;
16731;SDS011;8484;50.904;9.192;2023-06-10T09:12:52;2.27;;;1.70;;
16731;SDS011;8484;50.904;9.192;2023-06-10T09:15:20;2.23;;;1.50;;
16731;SDS011;8484;50.904;9.192;2023-06-10T09:17:47;2.20;;;1.53;;
16731;SDS011;8484;50.904;9.192;2023-06-10T09:20:14;2.30;;;1.27;;
16731;SDS011;8484;50.904;9.192;2023-06-10T09:22:43;2.63;;;1.40;;
16731;SDS011;8484;50.904;9.192;2023-06-10T09:25:10;1.63;;;1.40;;
16731;SDS011;8484;50.904;9.192;2023-06-10T09:27:44;3.57;;;1.60;;
16731;SDS011;8484;50.904;9.192;2023-06-10T09:30:25;2.77;;;1.50;;
16731;SDS011;8484;50.904;9.192;2023-06-10T09:32:53;2.57;;;1.50;;
16731;SDS011;8484;50.904;9.192;2023-06-10T09:35:22;3.13;;;1.50;;
16731;SDS011;8484;50.904;9.192;2023-06-10T09:37:51;2.17;;;1.40;;
16731;SDS011;8484;50.904;9.192;2023-06-10T09:40:19;2.40;;;1.90;;
16731;SDS011;8484;50.904;9.192;2023-06-10T09:42:46;1.73;;;1.60;;
16731;SDS011;8484;50.904;9.192;2023-06-10T09:45:20;1.67;;;1.40;;
16731;SDS011;8484;50.904;9.192;2023-06-10T09:47:47;2.47;;;1.50;;
16731;SDS011;8484;50.904;9.192;2023-06-10T09:50:17;1.40;;;1.30;;
16731;SDS011;8484;50.904;9.192;2023-06-10T09:52:45;1.83;;;1.27;;
16731;SDS011;8484;50.904;9.192;2023-06-10T09:55:14;3.57;;;1.50;;
16731;SDS011;8484;50.904;9.192;2023-06-10T09:57:41;1.77;;;1.40;;
16731;SDS011;8484;50.904;9.192;2023-06-10T10:00:14;2.03;;;1.33;;
16731;SDS011;8484;50.904;9.192;2023-06-10T10:02:45;1.87;;;1.40;;
16731;SDS011;8484;50.904;9.192;2023-06-10T10:05:13;1.60;;;1.47;;
16731;SDS011;8484;50.904;9.192;2023-06-10T10:07:41;3.00;;;1.50;;
16731;SDS011;8484;50.904;9.192;2023-06-10T10:10:10;1.70;;;1.60;;
16731;SDS011;8484;50.904;9.192;2023-06-10T10:12:41;1.77;;;1.40;;
16731;SDS011;8484;50.904;9.192;2023-06-10T10:15:09;2.80;;;1.60;;
16731;SDS011;8484;50.904;9.192;2023-06-10T10:17:37;3.50;;;1.20;;
16731;SDS011;8484;50.904;9.192;2023-06-10T10:20:08;4.33;;;1.60;;
16731;SDS011;8484;50.904;9.192;2023-06-10T10:22:39;2.93;;;1.37;;
16731;SDS011;8484;50.904;9.192;2023-06-10T10:25:08;4.97;;;1.43;;
16731;SDS011;8484;50.904;9.192;2023-06-10T10:27:42;1.67;;;1.40;;
16731;SDS011;8484;50.904;9.192;2023-06-10T10:30:11;2.07;;;1.30;;
16731;SDS011;8484;50.904;9.192;2023-06-10T10:32:41;2.20;;;1.37;;
16731;SDS011;8484;50.904;9.192;2023-06-10T10:35:15;2.23;;;1.53;;
16731;SDS011;8484;50.904;9.192;2023-06-10T10:37:44;2.17;;;1.20;;
16731;SDS011;8484;50.904;9.192;2023-06-10T10:40:11;1.27;;;1.07;;
16731;SDS011;8484;50.904;9.192;2023-06-10T10:42:42;1.33;;;1.20;;
16731;SDS011;8484;50.904;9.192;2023-06-10T10:45:10;1.70;;;1.50;;
16731;SDS011;8484;50.904;9.192;2023-06-10T10:47:37;4.30;;;1.50;;
16731;SDS011;8484;50.904;9.192;2023-06-10T10:50:12;3.00;;;1.17;;
16731;SDS011;8484;50.904;9.192;2023-06-10T10:52:51;1.30;;;1.20;;
16731;SDS011;8484;50.904;9.192;2023-06-10T10:55:21;2.40;;;1.30;;
16731;SDS011;8484;50.904;9.192;2023-06-10T10:57:54;1.40;;;1.30;;
16731;SDS011;8484;50.904;9.192;2023-06-10T11:00:28;2.10;;;1.13;;
16731;SDS011;8484;50.904;9.192;2023-06-10T11:03:02;3.83;;;1.23;;
16731;SDS011;8484;50.904;9.192;2023-06-10T11:05:35;2.77;;;1.40;;
16731;SDS011;8484;50.904;9.192;2023-06-10T11:08:09;1.57;;;1.30;;
16731;SDS011;8484;50.904;9.192;2023-06-10T11:10:37;3.93;;;1.07;;
16731;SDS011;8484;50.904;9.192;2023-06-10T11:13:07;1.50;;;1.10;;
16731;SDS011;8484;50.904;9.192;2023-06-10T11:15:38;1.30;;;1.20;;
16731;SDS011;8484;50.904;9.192;2023-06-10T11:18:09;1.93;;;1.37;;
16731;SDS011;8484;50.904;9.192;2023-06-10T11:20:44;1.23;;;1.13;;
16731;SDS011;8484;50.904;9.192;2023-06-10T11:26:12;1.80;;;1.40;;
16731;SDS011;8484;50.904;9.192;2023-06-10T11:29:00;3.00;;;1.20;;
16731;SDS011;8484;50.904;9.192;2023-06-10T11:31:31;4.33;;;1.30;;
16731;SDS011;8484;50.904;9.192;2023-06-10T11:33:59;1.30;;;1.20;;
16731;SDS011;8484;50.904;9.192;2023-06-10T11:36:30;1.43;;;1.30;;
16731;SDS011;8484;50.904;9.192;2023-06-10T11:38:58;1.30;;;1.20;;
16731;SDS011;8484;50.904;9.192;2023-06-10T11:41:26;2.03;;;1.30;;
16731;SDS011;8484;50.904;9.192;2023-06-10T11:43:57;2.73;;;1.37;;
16731;SDS011;8484;50.904;9.192;2023-06-10T11:46:27;2.43;;;1.30;;
16731;SDS011;8484;50.904;9.192;2023-06-10T11:48:54;1.50;;;1.40;;
16731;SDS011;8484;50.904;9.192;2023-06-10T11:51:23;1.50;;;1.40;;
16731;SDS011;8484;50.904;9.192;2023-06-10T11:53:52;1.40;;;1.30;;
16731;SDS011;8484;50.904;9.192;2023-06-10T11:56:19;2.90;;;1.20;;
16731;SDS011;8484;50.904;9.192;2023-06-10T11:58:52;2.60;;;1.37;;
16731;SDS011;8484;50.904;9.192;2023-06-10T12:01:22;2.17;;;1.20;;
16731;SDS011;8484;50.904;9.192;2023-06-10T12:03:56;2.90;;;1.40;;
16731;SDS011;8484;50.904;9.192;2023-06-10T12:06:24;2.57;;;1.40;;
16731;SDS011;8484;50.904;9.192;2023-06-10T12:08:51;2.07;;;1.30;;
16731;SDS011;8484;50.904;9.192;2023-06-10T12:11:18;1.47;;;1.30;;
16731;SDS011;8484;50.904;9.192;2023-06-10T12:13:46;1.60;;;1.30;;
16731;SDS011;8484;50.904;9.192;2023-06-10T12:16:14;2.40;;;1.37;;
16731;SDS011;8484;50.904;9.192;2023-06-10T12:18:44;5.13;;;1.50;;
16731;SDS011;8484;50.904;9.192;2023-06-10T12:21:17;2.57;;;1.37;;
16731;SDS011;8484;50.904;9.192;2023-06-10T12:24:05;2.83;;;1.30;;
16731;SDS011;8484;50.904;9.192;2023-06-10T12:26:34;5.83;;;1.60;;
16731;SDS011;8484;50.904;9.192;2023-06-10T12:29:17;2.67;;;2.47;;
16731;SDS011;8484;50.904;9.192;2023-06-10T12:31:52;2.73;;;2.00;;
16731;SDS011;8484;50.904;9.192;2023-06-10T12:34:32;2.03;;;1.50;;
16731;SDS011;8484;50.904;9.192;2023-06-10T12:37:02;1.53;;;1.20;;
16731;SDS011;8484;50.904;9.192;2023-06-10T12:39:30;5.23;;;1.33;;
16731;SDS011;8484;50.904;9.192;2023-06-10T12:41:57;2.47;;;1.13;;
16731;SDS011;8484;50.904;9.192;2023-06-10T12:44:33;4.50;;;1.67;;
16731;SDS011;8484;50.904;9.192;2023-06-10T12:47:01;1.40;;;1.20;;
16731;SDS011;8484;50.904;9.192;2023-06-10T12:49:36;1.20;;;1.10;;
16731;SDS011;8484;50.904;9.192;2023-06-10T12:52:03;1.37;;;1.27;;
16731;SDS011;8484;50.904;9.192;2023-06-10T12:54:30;3.37;;;1.20;;
16731;SDS011;8484;50.904;9.192;2023-06-10T12:56:57;1.83;;;1.30;;
16731;SDS011;8484;50.904;9.192;2023-06-10T12:59:24;1.20;;;1.10;;
16731;SDS011;8484;50.904;9.192;2023-06-10T13:01:52;3.77;;;1.33;;
16731;SDS011;8484;50.904;9.192;2023-06-10T13:04:20;1.73;;;1.30;;
16731;SDS011;8484;50.904;9.192;2023-06-10T13:06:49;2.10;;;1.30;;
16731;SDS011;8484;50.904;9.192;2023-06-10T13:09:16;1.60;;;1.17;;
16731;SDS011;8484;50.904;9.192;2023-06-10T13:11:43;2.90;;;1.23;;
16731;SDS011;8484;50.904;9.192;2023-06-10T13:14:10;1.97;;;1.30;;
16731;SDS011;8484;50.904;9.192;2023-06-10T13:16:37;1.50;;;1.00;;
16731;SDS011;8484;50.904;9.192;2023-06-10T13:19:05;2.00;;;1.00;;
16731;SDS011;8484;50.904;9.192;2023-06-10T13:21:32;2.37;;;0.90;;
16731;SDS011;8484;50.904;9.192;2023-06-10T13:24:01;2.00;;;1.40;;
16731;SDS011;8484;50.904;9.192;2023-06-10T13:26:28;2.27;;;1.20;;
16731;SDS011;8484;50.904;9.192;2023-06-10T13:28:55;2.23;;;1.10;;
16731;SDS011;8484;50.904;9.192;2023-06-10T13:31:22;1.10;;;1.00;;
16731;SDS011;8484;50.904;9.192;2023-06-10T13:33:49;1.20;;;1.10;;
16731;SDS011;8484;50.904;9.192;2023-06-10T13:36:16;3.57;;;1.20;;
16731;SDS011;8484;50.904;9.192;2023-06-10T13:38:43;1.50;;;1.03;;
16731;SDS011;8484;50.904;9.192;2023-06-10T13:41:12;1.73;;;1.10;;
16731;SDS011;8484;50.904;9.192;2023-06-10T13:43:39;1.53;;;1.13;;
16731;SDS011;8484;50.904;9.192;2023-06-10T13:46:06;1.77;;;1.00;;
16731;SDS011;8484;50.904;9.192;2023-06-10T13:48:33;1.30;;;1.20;;
16731;SDS011;8484;50.904;9.192;2023-06-10T13:51:00;1.80;;;0.90;;
16731;SDS011;8484;50.904;9.192;2023-06-10T13:53:28;4.07;;;1.40;;
16731;SDS011;8484;50.904;9.192;2023-06-10T13:55:55;1.67;;;1.10;;
16731;SDS011;8484;50.904;9.192;2023-06-10T13:58:23;2.20;;;1.20;;
16731;SDS011;8484;50.904;9.192;2023-06-10T14:00:51;2.33;;;1.17;;
16731;SDS011;8484;50.904;9.192;2023-06-10T14:03:18;2.73;;;1.20;;
16731;SDS011;8484;50.904;9.192;2023-06-10T14:05:45;1.63;;;1.20;;
16731;SDS011;8484;50.904;9.192;2023-06-10T14:08:12;1.53;;;1.23;;
16731;SDS011;8484;50.904;9.192;2023-06-10T14:10:39;3.60;;;1.20;;
16731;SDS011;8484;50.904;9.192;2023-06-10T14:13:06;1.37;;;1.10;;
16731;SDS011;8484;50.904;9.192;2023-06-10T14:15:34;1.20;;;1.10;;
16731;SDS011;8484;50.904;9.192;2023-06-10T14:18:01;1.20;;;1.00;;
16731;SDS011;8484;50.904;9.192;2023-06-10T14:20:28;1.27;;;1.10;;
16731;SDS011;8484;50.904;9.192;2023-06-10T14:22:56;3.70;;;1.10;;
16731;SDS011;8484;50.904;9.192;2023-06-10T14:25:24;1.30;;;1.00;;
16731;SDS011;8484;50.904;9.192;2023-06-10T14:27:51;2.33;;;1.10;;
16731;SDS011;8484;50.904;9.192;2023-06-10T14:30:18;1.43;;;1.10;;
16731;SDS011;8484;50.904;9.192;2023-06-10T14:32:46;1.40;;;1.23;;
16731;SDS011;8484;50.904;9.192;2023-06-10T14:35:13;1.47;;;1.37;;
16731;SDS011;8484;50.904;9.192;2023-06-10T14:37:40;1.50;;;1.17;;
16731;SDS011;8484;50.904;9.192;2023-06-10T15:21:59;2.10;;;1.60;;
16731;SDS011;8484;50.904;9.192;2023-06-10T15:24:45;1.93;;;1.50;;
16731;SDS011;8484;50.904;9.192;2023-06-10T15:27:33;1.70;;;1.50;;
16731;SDS011;8484;50.904;9.192;2023-06-10T15:30:21;1.60;;;1.50;;
16731;SDS011;8484;50.904;9.192;2023-06-10T15:33:15;1.97;;;1.60;;
16731;SDS011;8484;50.904;9.192;2023-06-10T15:36:15;1.47;;;1.37;;
16731;SDS011;8484;50.904;9.192;2023-06-10T15:39:01;3.90;;;1.50;;
16731;SDS011;8484;50.904;9.192;2023-06-10T15:41:53;1.53;;;1.43;;
16731;SDS011;8484;50.904;9.192;2023-06-10T15:44:41;2.30;;;1.60;;
16731;SDS011;8484;50.904;9.192;2023-06-10T15:47:28;1.57;;;1.47;;
16731;SDS011;8484;50.904;9.192;2023-06-10T15:50:13;1.47;;;1.30;;
16731;SDS011;8484;50.904;9.192;2023-06-10T15:53:01;1.63;;;1.30;;
16731;SDS011;8484;50.904;9.192;2023-06-10T15:55:51;1.37;;;1.27;;